createdAt,value
2023-02-06T00:04:03.301Z,6.50
2023-02-06T00:09:07.690Z,6.23
2023-02-06T00:14:12.171Z,5.70
2023-02-06T00:19:15.292Z,6.93
2023-02-06T00:24:18.345Z,5.17
2023-02-06T00:29:22.801Z,5.47
2023-02-06T00:34:26.269Z,6.13
2023-02-06T00:39:29.278Z,5.93
2023-02-06T00:44:33.723Z,6.57
2023-02-06T00:49:37.028Z,5.93
2023-02-06T00:54:40.016Z,5.90
2023-02-06T00:59:44.622Z,6.17
2023-02-06T01:04:47.665Z,6.20
2023-02-06T01:09:50.786Z,5.00
2023-02-06T01:14:55.422Z,5.90
2023-02-06T01:19:58.381Z,6.60
2023-02-06T01:25:01.391Z,5.77
2023-02-06T01:30:07.132Z,5.27
2023-02-06T01:35:11.758Z,5.23
2023-02-06T01:40:17.539Z,5.03
2023-02-06T01:45:47.524Z,6.00
2023-02-06T01:50:53.679Z,5.27
2023-02-06T01:55:59.533Z,5.27
2023-02-06T02:01:05.365Z,5.37
2023-02-06T02:06:11.839Z,4.80
2023-02-06T02:11:18.400Z,5.13
2023-02-06T02:16:28.988Z,5.73
2023-02-06T02:22:04.315Z,5.90
2023-02-06T02:27:34.962Z,5.57
2023-02-06T02:33:05.056Z,5.40
2023-02-06T02:38:19.961Z,5.23
2023-02-06T02:43:34.055Z,5.67
2023-02-06T02:48:41.173Z,5.53
2023-02-06T02:53:46.115Z,5.10
2023-02-06T02:58:54.561Z,4.20
2023-02-06T03:04:01.404Z,5.27
2023-02-06T03:09:12.753Z,6.60
2023-02-06T03:14:24.636Z,5.60
2023-02-06T03:19:33.503Z,5.07
2023-02-06T03:24:40.661Z,5.40
2023-02-06T03:29:46.356Z,5.13
2023-02-06T03:34:55.170Z,4.00
2023-02-06T03:40:02.170Z,4.50
2023-02-06T03:45:10.911Z,4.27
2023-02-06T03:50:16.282Z,4.90
2023-02-06T03:55:23.912Z,5.30
2023-02-06T04:00:27.843Z,5.70
2023-02-06T04:05:31.145Z,4.90
2023-02-06T04:10:35.678Z,5.90
2023-02-06T04:15:38.625Z,6.77
2023-02-06T04:20:42.136Z,5.50
2023-02-06T04:25:46.632Z,6.03
2023-02-06T04:30:49.896Z,5.63
2023-02-06T04:35:53.184Z,6.30
2023-02-06T04:41:03.396Z,6.07
2023-02-06T04:46:06.523Z,6.57
2023-02-06T04:51:09.868Z,5.33
2023-02-06T04:56:14.636Z,5.87
2023-02-06T05:01:18.523Z,6.57
2023-02-06T05:06:21.516Z,6.17
2023-02-06T05:11:26.035Z,6.10
2023-02-06T05:16:29.067Z,7.10
2023-02-06T05:21:32.064Z,5.97
2023-02-06T05:26:36.579Z,4.90
2023-02-06T05:31:39.672Z,4.97
2023-02-06T05:36:42.615Z,5.10
2023-02-06T05:41:46.972Z,5.43
2023-02-06T05:46:49.886Z,5.53
2023-02-06T05:51:52.953Z,3.80
2023-02-06T05:56:58.426Z,6.60
2023-02-06T06:02:01.429Z,4.93
2023-02-06T06:07:04.986Z,4.87
2023-02-06T06:12:09.540Z,5.70
2023-02-06T06:17:12.615Z,6.27
2023-02-06T06:22:16.174Z,6.33
2023-02-06T06:27:20.626Z,5.10
2023-02-06T06:32:23.746Z,5.70
2023-02-06T06:37:26.763Z,5.60
2023-02-06T06:42:31.221Z,5.23
2023-02-06T06:47:34.176Z,5.70
2023-02-06T06:52:37.292Z,5.13
2023-02-06T06:57:41.845Z,5.20
2023-02-06T07:02:45.139Z,5.90
2023-02-06T07:07:48.243Z,5.07
2023-02-06T07:12:53.914Z,5.60
2023-02-06T07:17:57.173Z,4.67
2023-02-06T07:23:01.900Z,4.87
2023-02-06T07:28:06.741Z,6.83
2023-02-06T07:33:09.802Z,4.60
2023-02-06T07:38:12.966Z,5.00
2023-02-06T07:43:17.498Z,4.20
2023-02-06T07:48:20.519Z,4.73
2023-02-06T07:53:23.582Z,5.07
2023-02-06T07:58:28.553Z,5.17
2023-02-06T08:03:31.537Z,6.17
2023-02-06T08:08:34.554Z,6.67
2023-02-06T08:13:39.165Z,5.33
2023-02-06T08:18:42.646Z,6.50
2023-02-06T08:23:46.156Z,7.30
2023-02-06T08:28:51.954Z,7.10
2023-02-06T08:33:55.947Z,9.60
2023-02-06T08:38:59.250Z,7.90
2023-02-06T08:44:05.481Z,8.27
2023-02-06T08:49:12.790Z,6.90
2023-02-06T08:54:20.774Z,7.17
2023-02-06T08:59:25.637Z,7.10
2023-02-06T09:04:31.803Z,6.13
2023-02-06T09:09:35.092Z,5.50
2023-02-06T09:14:39.817Z,6.70
2023-02-06T09:19:43.070Z,6.17
2023-02-06T09:24:46.261Z,6.40
2023-02-06T09:29:50.677Z,5.97
2023-02-06T09:34:53.665Z,6.30
2023-02-06T09:39:56.899Z,6.80
2023-02-06T09:45:07.489Z,5.33
2023-02-06T09:50:27.080Z,6.43
2023-02-06T09:55:38.005Z,6.03
2023-02-06T10:00:49.504Z,6.37
2023-02-06T10:06:02.986Z,5.67
2023-02-06T10:11:14.067Z,5.30
2023-02-06T10:16:31.757Z,5.23
2023-02-06T10:21:41.413Z,5.10
2023-02-06T10:26:44.491Z,5.17
2023-02-06T10:32:02.687Z,5.20
2023-02-06T10:37:28.047Z,5.00
2023-02-06T10:42:44.320Z,5.27
2023-02-06T10:47:54.368Z,4.90
2023-02-06T10:52:59.463Z,5.17
2023-02-06T10:58:11.591Z,4.07
2023-02-06T11:03:20.586Z,5.13
2023-02-06T11:08:29.533Z,4.57
2023-02-06T11:13:36.401Z,5.77
2023-02-06T11:18:43.392Z,4.20
2023-02-06T11:23:47.548Z,3.83
2023-02-06T11:28:53.512Z,5.53
2023-02-06T11:33:58.395Z,3.63
2023-02-06T11:39:03.625Z,4.50
2023-02-06T11:44:07.432Z,3.30
2023-02-06T11:49:25.785Z,4.27
2023-02-06T11:54:31.212Z,3.60
2023-02-06T11:59:36.417Z,3.27
2023-02-06T12:04:42.072Z,3.60
2023-02-06T12:09:45.102Z,2.80
2023-02-06T12:14:52.979Z,3.30
2023-02-06T12:20:04.319Z,3.50
2023-02-06T12:25:22.946Z,3.57
2023-02-06T12:30:33.333Z,3.83
2023-02-06T12:35:46.648Z,3.97
2023-02-06T12:40:59.525Z,4.37
2023-02-06T12:46:07.567Z,3.80
2023-02-06T12:51:19.680Z,3.50
2023-02-06T12:56:29.143Z,4.00
2023-02-06T13:01:54.665Z,3.27
2023-02-06T13:07:06.556Z,4.67
2023-02-06T13:12:15.159Z,3.60
2023-02-06T13:17:21.446Z,4.03
2023-02-06T13:22:49.415Z,3.70
2023-02-06T13:27:53.177Z,4.93
2023-02-06T13:32:57.838Z,2.90
2023-02-06T13:38:37.042Z,2.77
2023-02-06T13:43:41.713Z,3.30
2023-02-06T13:49:12.782Z,3.60
2023-02-06T13:54:49.163Z,2.73
2023-02-06T13:59:55.006Z,4.07
2023-02-06T14:04:59.261Z,3.13
2023-02-06T14:10:40.643Z,4.00
2023-02-06T14:15:52.785Z,2.83
2023-02-06T14:21:05.013Z,3.53
2023-02-06T14:26:24.735Z,3.23
2023-02-06T14:31:46.230Z,3.17
2023-02-06T14:37:06.386Z,2.90
2023-02-06T14:42:16.646Z,2.93
2023-02-06T14:47:24.171Z,2.63
2023-02-06T14:52:30.956Z,2.80
2023-02-06T14:57:35.551Z,2.97
2023-02-06T15:02:38.887Z,2.83
2023-02-06T15:07:41.910Z,3.37
2023-02-06T15:12:52.620Z,2.60
2023-02-06T15:18:00.822Z,3.00
2023-02-06T15:23:17.677Z,2.43
2023-02-06T15:28:28.555Z,3.20
2023-02-06T15:33:34.710Z,3.27
2023-02-06T15:38:39.957Z,3.30
2023-02-06T15:43:46.892Z,3.27
2023-02-06T15:48:53.966Z,2.70
2023-02-06T15:54:08.714Z,2.63
2023-02-06T15:59:20.705Z,3.47
2023-02-06T16:04:26.959Z,3.50
2023-02-06T16:09:30.513Z,3.97
2023-02-06T16:14:37.701Z,3.30
2023-02-06T16:19:49.691Z,3.27
2023-02-06T16:24:55.992Z,2.97
2023-02-06T16:30:00.528Z,3.60
2023-02-06T16:35:07.152Z,3.20
2023-02-06T16:40:10.943Z,3.30
2023-02-06T16:45:24.167Z,3.47
2023-02-06T16:50:27.306Z,4.63
2023-02-06T16:55:30.515Z,5.80
2023-02-06T17:00:35.381Z,4.43
2023-02-06T17:05:39.606Z,4.00
2023-02-06T17:10:42.757Z,3.63
2023-02-06T17:15:48.315Z,3.20
2023-02-06T17:20:53.819Z,3.23
2023-02-06T17:25:56.955Z,3.43
2023-02-06T17:31:01.420Z,3.60
2023-02-06T17:36:07.801Z,4.13
2023-02-06T17:41:11.033Z,3.60
2023-02-06T17:46:15.592Z,4.97
2023-02-06T17:51:18.767Z,5.10
2023-02-06T17:56:22.789Z,4.33
2023-02-06T18:01:30.748Z,3.40
2023-02-06T18:06:36.432Z,3.37
2023-02-06T18:11:39.610Z,3.27
2023-02-06T18:16:45.587Z,3.50
2023-02-06T18:21:48.664Z,3.30
2023-02-06T18:26:52.054Z,2.93
2023-02-06T18:31:56.968Z,3.53
2023-02-06T18:37:00.115Z,3.73
2023-02-06T18:42:20.776Z,3.30
2023-02-06T18:47:25.411Z,3.27
2023-02-06T18:52:29.109Z,3.40
2023-02-06T18:57:32.559Z,3.20
2023-02-06T19:02:37.147Z,3.87
2023-02-06T19:07:40.426Z,3.53
2023-02-06T19:12:44.587Z,3.93
2023-02-06T19:17:50.313Z,4.83
2023-02-06T19:22:53.744Z,4.53
2023-02-06T19:27:56.937Z,4.13
2023-02-06T19:33:01.505Z,4.67
2023-02-06T19:38:04.971Z,4.53
2023-02-06T19:43:07.982Z,3.70
2023-02-06T19:48:13.875Z,4.63
2023-02-06T19:53:17.078Z,3.83
2023-02-06T19:58:20.264Z,4.23
2023-02-06T20:03:25.133Z,4.73
2023-02-06T20:08:28.341Z,4.53
2023-02-06T20:13:31.533Z,4.07
2023-02-06T20:18:37.299Z,4.73
2023-02-06T20:23:40.847Z,4.10
2023-02-06T20:28:44.082Z,3.67
2023-02-06T20:33:48.975Z,4.90
2023-02-06T20:38:54.798Z,4.37
2023-02-06T20:43:58.990Z,4.43
2023-02-06T20:49:05.484Z,4.90
2023-02-06T20:54:08.691Z,4.07
2023-02-06T20:59:14.386Z,4.80
2023-02-06T21:04:19.901Z,4.03
2023-02-06T21:09:23.040Z,4.23
2023-02-06T21:14:28.196Z,4.00
2023-02-06T21:19:32.663Z,4.20
2023-02-06T21:24:35.737Z,4.20
2023-02-06T21:29:38.785Z,4.80
2023-02-06T21:34:43.961Z,4.97
2023-02-06T21:39:47.020Z,4.53
2023-02-06T21:44:50.551Z,5.47
2023-02-06T21:49:55.000Z,6.40
2023-02-06T21:54:58.090Z,6.43
2023-02-06T22:00:01.271Z,5.87
2023-02-06T22:05:07.391Z,6.07
2023-02-06T22:10:11.238Z,8.03
2023-02-06T22:15:14.226Z,5.30
2023-02-06T22:20:18.609Z,5.07
2023-02-06T22:25:21.684Z,4.63
2023-02-06T22:30:24.798Z,4.90
2023-02-06T22:35:29.252Z,5.10
2023-02-06T22:40:32.460Z,4.20
2023-02-06T22:45:36.973Z,4.47
2023-02-06T22:50:41.642Z,4.83
2023-02-06T22:56:01.979Z,5.40
2023-02-06T23:01:05.256Z,5.57
2023-02-06T23:06:11.595Z,4.43
2023-02-06T23:11:15.530Z,4.23
2023-02-06T23:16:18.502Z,4.53
2023-02-06T23:21:25.031Z,4.23
2023-02-06T23:26:29.059Z,4.53
2023-02-06T23:31:32.100Z,4.77
2023-02-06T23:36:36.465Z,4.93
2023-02-06T23:41:39.925Z,4.83
2023-02-06T23:46:43.181Z,5.63
2023-02-06T23:51:47.645Z,7.03
2023-02-06T23:56:50.738Z,7.20
